sensor_id;sensor_type;location;lat;lon;timestamp;P1;durP1;ratioP1;P2;durP2;ratioP2
4464;SDS011;2245;48.136;13.428;2023-06-14T00:02:15;4.60;;;3.07;;
4464;SDS011;2245;48.136;13.428;2023-06-14T00:04:42;4.30;;;3.73;;
4464;SDS011;2245;48.136;13.428;2023-06-14T00:07:08;8.00;;;4.40;;
4464;SDS011;2245;48.136;13.428;2023-06-14T00:09:38;10.20;;;3.90;;
4464;SDS011;2245;48.136;13.428;2023-06-14T00:12:06;9.00;;;5.50;;
4464;SDS011;2245;48.136;13.428;2023-06-14T00:14:35;7.63;;;4.00;;
4464;SDS011;2245;48.136;13.428;2023-06-14T00:17:02;9.37;;;3.50;;
4464;SDS011;2245;48.136;13.428;2023-06-14T00:19:29;5.50;;;4.37;;
4464;SDS011;2245;48.136;13.428;2023-06-14T00:22:00;7.53;;;4.03;;
4464;SDS011;2245;48.136;13.428;2023-06-14T00:24:28;9.70;;;3.80;;
4464;SDS011;2245;48.136;13.428;2023-06-14T00:26:55;10.00;;;4.63;;
4464;SDS011;2245;48.136;13.428;2023-06-14T00:29:21;4.20;;;3.00;;
4464;SDS011;2245;48.136;13.428;2023-06-14T00:31:50;5.10;;;3.60;;
4464;SDS011;2245;48.136;13.428;2023-06-14T00:34:17;6.10;;;3.80;;
4464;SDS011;2245;48.136;13.428;2023-06-14T00:36:44;3.93;;;3.23;;
4464;SDS011;2245;48.136;13.428;2023-06-14T00:39:10;8.23;;;3.90;;
4464;SDS011;2245;48.136;13.428;2023-06-14T00:41:39;7.97;;;4.03;;
4464;SDS011;2245;48.136;13.428;2023-06-14T00:44:06;11.00;;;3.80;;
4464;SDS011;2245;48.136;13.428;2023-06-14T00:46:32;6.00;;;3.30;;
4464;SDS011;2245;48.136;13.428;2023-06-14T00:49:01;4.70;;;3.30;;
4464;SDS011;2245;48.136;13.428;2023-06-14T00:51:28;3.87;;;3.40;;
4464;SDS011;2245;48.136;13.428;2023-06-14T00:53:55;7.67;;;3.57;;
4464;SDS011;2245;48.136;13.428;2023-06-14T00:56:22;8.00;;;3.50;;
4464;SDS011;2245;48.136;13.428;2023-06-14T00:58:49;7.30;;;3.40;;
4464;SDS011;2245;48.136;13.428;2023-06-14T01:01:16;3.53;;;3.00;;
4464;SDS011;2245;48.136;13.428;2023-06-14T01:03:43;8.00;;;3.90;;
4464;SDS011;2245;48.136;13.428;2023-06-14T01:06:15;5.67;;;3.37;;
4464;SDS011;2245;48.136;13.428;2023-06-14T01:08:54;9.90;;;4.53;;
4464;SDS011;2245;48.136;13.428;2023-06-14T01:11:26;5.00;;;3.03;;
4464;SDS011;2245;48.136;13.428;2023-06-14T01:13:56;8.00;;;4.10;;
4464;SDS011;2245;48.136;13.428;2023-06-14T01:16:26;5.90;;;3.30;;
4464;SDS011;2245;48.136;13.428;2023-06-14T01:18:53;3.20;;;2.90;;
4464;SDS011;2245;48.136;13.428;2023-06-14T01:21:23;5.00;;;3.53;;
4464;SDS011;2245;48.136;13.428;2023-06-14T01:23:52;4.43;;;3.70;;
4464;SDS011;2245;48.136;13.428;2023-06-14T01:26:20;7.93;;;4.57;;
4464;SDS011;2245;48.136;13.428;2023-06-14T01:28:47;6.33;;;3.93;;
4464;SDS011;2245;48.136;13.428;2023-06-14T01:31:16;11.60;;;4.07;;
4464;SDS011;2245;48.136;13.428;2023-06-14T01:33:44;5.70;;;4.10;;
4464;SDS011;2245;48.136;13.428;2023-06-14T01:36:12;5.10;;;3.80;;
4464;SDS011;2245;48.136;13.428;2023-06-14T01:38:39;8.60;;;5.30;;
4464;SDS011;2245;48.136;13.428;2023-06-14T01:41:08;4.07;;;3.20;;
4464;SDS011;2245;48.136;13.428;2023-06-14T01:43:35;4.57;;;3.47;;
4464;SDS011;2245;48.136;13.428;2023-06-14T01:46:02;8.30;;;3.70;;
4464;SDS011;2245;48.136;13.428;2023-06-14T01:48:29;10.83;;;4.00;;
4464;SDS011;2245;48.136;13.428;2023-06-14T01:50:56;6.27;;;3.40;;
4464;SDS011;2245;48.136;13.428;2023-06-14T01:53:23;6.40;;;3.60;;
4464;SDS011;2245;48.136;13.428;2023-06-14T01:55:50;8.17;;;3.50;;
4464;SDS011;2245;48.136;13.428;2023-06-14T01:58:20;8.57;;;3.40;;
4464;SDS011;2245;48.136;13.428;2023-06-14T02:00:48;5.73;;;4.37;;
4464;SDS011;2245;48.136;13.428;2023-06-14T02:03:16;6.37;;;3.53;;
4464;SDS011;2245;48.136;13.428;2023-06-14T02:05:44;6.13;;;4.03;;
4464;SDS011;2245;48.136;13.428;2023-06-14T02:08:11;6.30;;;3.80;;
4464;SDS011;2245;48.136;13.428;2023-06-14T02:10:38;3.80;;;3.50;;
4464;SDS011;2245;48.136;13.428;2023-06-14T02:13:05;5.93;;;3.83;;
4464;SDS011;2245;48.136;13.428;2023-06-14T02:15:33;6.83;;;3.70;;
4464;SDS011;2245;48.136;13.428;2023-06-14T02:18:00;7.50;;;3.50;;
4464;SDS011;2245;48.136;13.428;2023-06-14T02:20:28;5.67;;;3.83;;
4464;SDS011;2245;48.136;13.428;2023-06-14T02:22:55;7.73;;;3.30;;
4464;SDS011;2245;48.136;13.428;2023-06-14T02:25:22;9.50;;;3.97;;
4464;SDS011;2245;48.136;13.428;2023-06-14T02:27:49;8.50;;;4.33;;
4464;SDS011;2245;48.136;13.428;2023-06-14T02:30:16;6.13;;;4.03;;
4464;SDS011;2245;48.136;13.428;2023-06-14T02:32:44;3.70;;;3.10;;
4464;SDS011;2245;48.136;13.428;2023-06-14T02:35:11;13.40;;;3.77;;
4464;SDS011;2245;48.136;13.428;2023-06-14T02:37:38;5.40;;;3.40;;
4464;SDS011;2245;48.136;13.428;2023-06-14T02:40:06;6.73;;;3.47;;
4464;SDS011;2245;48.136;13.428;2023-06-14T02:42:34;4.23;;;3.83;;
4464;SDS011;2245;48.136;13.428;2023-06-14T02:45:01;7.93;;;3.37;;
4464;SDS011;2245;48.136;13.428;2023-06-14T02:47:29;10.50;;;3.70;;
4464;SDS011;2245;48.136;13.428;2023-06-14T02:49:57;10.07;;;3.93;;
4464;SDS011;2245;48.136;13.428;2023-06-14T02:52:24;5.27;;;3.70;;
4464;SDS011;2245;48.136;13.428;2023-06-14T02:54:51;3.80;;;3.50;;
4464;SDS011;2245;48.136;13.428;2023-06-14T02:57:19;6.17;;;4.20;;
4464;SDS011;2245;48.136;13.428;2023-06-14T02:59:46;5.40;;;3.90;;
4464;SDS011;2245;48.136;13.428;2023-06-14T03:02:13;5.97;;;3.90;;
4464;SDS011;2245;48.136;13.428;2023-06-14T03:04:39;8.33;;;3.90;;
4464;SDS011;2245;48.136;13.428;2023-06-14T03:07:11;6.20;;;3.97;;
4464;SDS011;2245;48.136;13.428;2023-06-14T03:09:38;4.30;;;3.63;;
4464;SDS011;2245;48.136;13.428;2023-06-14T03:12:06;5.07;;;3.77;;
4464;SDS011;2245;48.136;13.428;2023-06-14T03:14:34;4.17;;;3.73;;
4464;SDS011;2245;48.136;13.428;2023-06-14T03:17:01;7.63;;;6.50;;
4464;SDS011;2245;48.136;13.428;2023-06-14T03:19:29;4.93;;;3.80;;
4464;SDS011;2245;48.136;13.428;2023-06-14T03:21:56;3.93;;;3.27;;
4464;SDS011;2245;48.136;13.428;2023-06-14T03:24:25;9.73;;;5.03;;
4464;SDS011;2245;48.136;13.428;2023-06-14T03:26:53;12.40;;;3.80;;
4464;SDS011;2245;48.136;13.428;2023-06-14T03:29:21;6.13;;;4.43;;
4464;SDS011;2245;48.136;13.428;2023-06-14T03:31:56;5.60;;;3.67;;
4464;SDS011;2245;48.136;13.428;2023-06-14T03:34:24;7.07;;;4.17;;
4464;SDS011;2245;48.136;13.428;2023-06-14T03:36:51;6.63;;;4.17;;
4464;SDS011;2245;48.136;13.428;2023-06-14T03:39:18;5.97;;;3.77;;
4464;SDS011;2245;48.136;13.428;2023-06-14T03:41:47;4.17;;;3.47;;
4464;SDS011;2245;48.136;13.428;2023-06-14T03:44:14;6.30;;;3.60;;
4464;SDS011;2245;48.136;13.428;2023-06-14T03:46:42;6.40;;;3.90;;
4464;SDS011;2245;48.136;13.428;2023-06-14T03:49:08;6.67;;;4.00;;
4464;SDS011;2245;48.136;13.428;2023-06-14T03:51:36;6.90;;;4.00;;
4464;SDS011;2245;48.136;13.428;2023-06-14T03:54:03;6.67;;;4.00;;
4464;SDS011;2245;48.136;13.428;2023-06-14T03:56:30;5.87;;;4.40;;
4464;SDS011;2245;48.136;13.428;2023-06-14T03:58:58;7.70;;;4.80;;
4464;SDS011;2245;48.136;13.428;2023-06-14T04:01:25;6.90;;;4.30;;
4464;SDS011;2245;48.136;13.428;2023-06-14T04:03:54;6.43;;;3.90;;
4464;SDS011;2245;48.136;13.428;2023-06-14T04:06:22;6.53;;;4.50;;
4464;SDS011;2245;48.136;13.428;2023-06-14T04:08:50;9.47;;;3.93;;
4464;SDS011;2245;48.136;13.428;2023-06-14T04:11:17;6.57;;;3.90;;
4464;SDS011;2245;48.136;13.428;2023-06-14T04:13:44;10.10;;;4.80;;
4464;SDS011;2245;48.136;13.428;2023-06-14T04:16:13;9.03;;;6.27;;
4464;SDS011;2245;48.136;13.428;2023-06-14T04:18:40;12.80;;;6.33;;
4464;SDS011;2245;48.136;13.428;2023-06-14T04:21:07;8.53;;;5.03;;
4464;SDS011;2245;48.136;13.428;2023-06-14T04:23:34;10.40;;;5.90;;
4464;SDS011;2245;48.136;13.428;2023-06-14T04:26:01;14.97;;;8.83;;
4464;SDS011;2245;48.136;13.428;2023-06-14T04:28:28;12.00;;;8.47;;
4464;SDS011;2245;48.136;13.428;2023-06-14T04:30:55;14.87;;;6.97;;
4464;SDS011;2245;48.136;13.428;2023-06-14T04:33:23;13.63;;;7.47;;
4464;SDS011;2245;48.136;13.428;2023-06-14T04:35:50;10.87;;;6.90;;
4464;SDS011;2245;48.136;13.428;2023-06-14T04:38:19;17.63;;;9.43;;
4464;SDS011;2245;48.136;13.428;2023-06-14T04:40:50;13.40;;;7.50;;
4464;SDS011;2245;48.136;13.428;2023-06-14T04:43:18;19.67;;;10.30;;
4464;SDS011;2245;48.136;13.428;2023-06-14T04:45:51;18.63;;;9.37;;
4464;SDS011;2245;48.136;13.428;2023-06-14T04:48:19;9.27;;;7.37;;
4464;SDS011;2245;48.136;13.428;2023-06-14T04:50:49;10.20;;;7.30;;
4464;SDS011;2245;48.136;13.428;2023-06-14T04:53:18;11.60;;;6.83;;
4464;SDS011;2245;48.136;13.428;2023-06-14T04:55:48;12.27;;;7.37;;
4464;SDS011;2245;48.136;13.428;2023-06-14T04:58:15;20.10;;;9.77;;
4464;SDS011;2245;48.136;13.428;2023-06-14T05:00:42;20.60;;;10.60;;
4464;SDS011;2245;48.136;13.428;2023-06-14T05:03:09;18.90;;;9.00;;
4464;SDS011;2245;48.136;13.428;2023-06-14T05:05:38;23.93;;;9.03;;
4464;SDS011;2245;48.136;13.428;2023-06-14T05:08:07;9.83;;;5.50;;
4464;SDS011;2245;48.136;13.428;2023-06-14T05:10:34;10.60;;;5.60;;
4464;SDS011;2245;48.136;13.428;2023-06-14T05:13:02;11.10;;;6.60;;
4464;SDS011;2245;48.136;13.428;2023-06-14T05:15:29;6.97;;;4.93;;
4464;SDS011;2245;48.136;13.428;2023-06-14T05:17:56;8.63;;;4.50;;
4464;SDS011;2245;48.136;13.428;2023-06-14T05:20:23;5.17;;;3.93;;
4464;SDS011;2245;48.136;13.428;2023-06-14T05:22:51;8.70;;;4.90;;
4464;SDS011;2245;48.136;13.428;2023-06-14T05:25:20;12.80;;;5.67;;
4464;SDS011;2245;48.136;13.428;2023-06-14T05:27:47;5.13;;;4.33;;
4464;SDS011;2245;48.136;13.428;2023-06-14T05:30:14;16.00;;;4.73;;
4464;SDS011;2245;48.136;13.428;2023-06-14T05:32:42;18.93;;;4.30;;
4464;SDS011;2245;48.136;13.428;2023-06-14T05:35:09;6.73;;;5.03;;
4464;SDS011;2245;48.136;13.428;2023-06-14T05:37:36;8.97;;;5.53;;
4464;SDS011;2245;48.136;13.428;2023-06-14T05:40:03;10.03;;;5.00;;
4464;SDS011;2245;48.136;13.428;2023-06-14T05:42:33;15.80;;;4.50;;
4464;SDS011;2245;48.136;13.428;2023-06-14T05:45:00;8.93;;;4.83;;
4464;SDS011;2245;48.136;13.428;2023-06-14T05:47:27;8.30;;;4.90;;
4464;SDS011;2245;48.136;13.428;2023-06-14T05:49:54;19.07;;;5.67;;
4464;SDS011;2245;48.136;13.428;2023-06-14T05:52:21;6.93;;;5.23;;
4464;SDS011;2245;48.136;13.428;2023-06-14T05:54:48;13.83;;;5.37;;
4464;SDS011;2245;48.136;13.428;2023-06-14T05:57:15;11.07;;;4.23;;
4464;SDS011;2245;48.136;13.428;2023-06-14T05:59:43;6.60;;;4.57;;
4464;SDS011;2245;48.136;13.428;2023-06-14T06:02:10;5.00;;;4.13;;
4464;SDS011;2245;48.136;13.428;2023-06-14T06:04:37;8.93;;;4.57;;
4464;SDS011;2245;48.136;13.428;2023-06-14T06:07:04;8.00;;;5.97;;
4464;SDS011;2245;48.136;13.428;2023-06-14T06:09:32;8.33;;;4.90;;
4464;SDS011;2245;48.136;13.428;2023-06-14T06:11:59;8.30;;;4.40;;
4464;SDS011;2245;48.136;13.428;2023-06-14T06:14:26;11.73;;;4.40;;
4464;SDS011;2245;48.136;13.428;2023-06-14T06:16:54;8.00;;;5.00;;
4464;SDS011;2245;48.136;13.428;2023-06-14T06:19:21;7.57;;;4.30;;
4464;SDS011;2245;48.136;13.428;2023-06-14T06:21:48;12.93;;;4.83;;
4464;SDS011;2245;48.136;13.428;2023-06-14T06:24:15;7.03;;;5.20;;
4464;SDS011;2245;48.136;13.428;2023-06-14T06:26:41;5.33;;;4.80;;
4464;SDS011;2245;48.136;13.428;2023-06-14T06:29:08;9.20;;;4.60;;
4464;SDS011;2245;48.136;13.428;2023-06-14T06:31:35;14.93;;;6.03;;
4464;SDS011;2245;48.136;13.428;2023-06-14T06:34:03;17.93;;;5.30;;
4464;SDS011;2245;48.136;13.428;2023-06-14T06:36:30;7.60;;;5.00;;
4464;SDS011;2245;48.136;13.428;2023-06-14T06:38:57;8.33;;;4.90;;
4464;SDS011;2245;48.136;13.428;2023-06-14T06:41:24;5.50;;;4.77;;
4464;SDS011;2245;48.136;13.428;2023-06-14T06:43:52;8.53;;;4.97;;
4464;SDS011;2245;48.136;13.428;2023-06-14T06:46:18;8.47;;;6.10;;
4464;SDS011;2245;48.136;13.428;2023-06-14T06:48:45;11.43;;;5.73;;
4464;SDS011;2245;48.136;13.428;2023-06-14T06:51:14;6.63;;;4.37;;
4464;SDS011;2245;48.136;13.428;2023-06-14T06:53:42;12.17;;;6.40;;
4464;SDS011;2245;48.136;13.428;2023-06-14T06:56:09;6.27;;;4.87;;
4464;SDS011;2245;48.136;13.428;2023-06-14T06:58:36;7.47;;;4.40;;
4464;SDS011;2245;48.136;13.428;2023-06-14T07:01:03;6.97;;;4.90;;
4464;SDS011;2245;48.136;13.428;2023-06-14T07:03:30;8.67;;;4.80;;
4464;SDS011;2245;48.136;13.428;2023-06-14T07:05:56;7.10;;;4.80;;
4464;SDS011;2245;48.136;13.428;2023-06-14T07:08:25;7.07;;;5.07;;
4464;SDS011;2245;48.136;13.428;2023-06-14T07:10:52;5.13;;;4.57;;
4464;SDS011;2245;48.136;13.428;2023-06-14T07:13:18;7.30;;;5.50;;
4464;SDS011;2245;48.136;13.428;2023-06-14T07:15:46;5.17;;;4.63;;
4464;SDS011;2245;48.136;13.428;2023-06-14T07:18:13;5.90;;;5.13;;
4464;SDS011;2245;48.136;13.428;2023-06-14T07:20:40;13.27;;;6.10;;
4464;SDS011;2245;48.136;13.428;2023-06-14T07:23:08;5.27;;;4.77;;
4464;SDS011;2245;48.136;13.428;2023-06-14T07:25:36;6.30;;;4.93;;
4464;SDS011;2245;48.136;13.428;2023-06-14T07:28:03;6.90;;;5.23;;
4464;SDS011;2245;48.136;13.428;2023-06-14T07:30:30;8.07;;;5.50;;
4464;SDS011;2245;48.136;13.428;2023-06-14T07:32:57;6.83;;;4.97;;
4464;SDS011;2245;48.136;13.428;2023-06-14T07:35:24;7.73;;;5.73;;
4464;SDS011;2245;48.136;13.428;2023-06-14T07:37:51;9.60;;;5.80;;
4464;SDS011;2245;48.136;13.428;2023-06-14T07:40:18;7.83;;;5.37;;
4464;SDS011;2245;48.136;13.428;2023-06-14T07:42:46;10.63;;;5.47;;
4464;SDS011;2245;48.136;13.428;2023-06-14T07:45:15;8.03;;;5.73;;
4464;SDS011;2245;48.136;13.428;2023-06-14T07:47:41;8.00;;;5.83;;
4464;SDS011;2245;48.136;13.428;2023-06-14T07:50:09;7.87;;;5.07;;
4464;SDS011;2245;48.136;13.428;2023-06-14T07:52:36;8.57;;;5.40;;
4464;SDS011;2245;48.136;13.428;2023-06-14T07:55:04;8.30;;;5.43;;
4464;SDS011;2245;48.136;13.428;2023-06-14T07:57:31;6.00;;;5.33;;
4464;SDS011;2245;48.136;13.428;2023-06-14T07:59:59;8.67;;;4.97;;
4464;SDS011;2245;48.136;13.428;2023-06-14T08:02:26;8.80;;;5.17;;
4464;SDS011;2245;48.136;13.428;2023-06-14T08:04:53;11.10;;;5.03;;
4464;SDS011;2245;48.136;13.428;2023-06-14T08:07:20;7.00;;;4.80;;
4464;SDS011;2245;48.136;13.428;2023-06-14T08:09:47;12.10;;;5.47;;
4464;SDS011;2245;48.136;13.428;2023-06-14T08:12:14;8.77;;;5.70;;
4464;SDS011;2245;48.136;13.428;2023-06-14T08:14:41;6.20;;;5.37;;
4464;SDS011;2245;48.136;13.428;2023-06-14T08:17:10;9.73;;;5.90;;
4464;SDS011;2245;48.136;13.428;2023-06-14T08:19:37;6.10;;;5.10;;
4464;SDS011;2245;48.136;13.428;2023-06-14T08:22:04;10.90;;;5.53;;
4464;SDS011;2245;48.136;13.428;2023-06-14T08:24:31;5.90;;;5.10;;
4464;SDS011;2245;48.136;13.428;2023-06-14T08:26:58;13.43;;;5.37;;
4464;SDS011;2245;48.136;13.428;2023-06-14T08:29:26;8.30;;;5.00;;
4464;SDS011;2245;48.136;13.428;2023-06-14T08:31:54;9.03;;;5.80;;
4464;SDS011;2245;48.136;13.428;2023-06-14T08:34:23;6.30;;;4.70;;
4464;SDS011;2245;48.136;13.428;2023-06-14T08:36:50;6.43;;;4.90;;
4464;SDS011;2245;48.136;13.428;2023-06-14T08:39:16;9.53;;;5.63;;
4464;SDS011;2245;48.136;13.428;2023-06-14T08:41:44;6.93;;;5.13;;
4464;SDS011;2245;48.136;13.428;2023-06-14T08:44:12;7.33;;;5.57;;
4464;SDS011;2245;48.136;13.428;2023-06-14T08:46:40;5.33;;;4.00;;
4464;SDS011;2245;48.136;13.428;2023-06-14T08:49:08;6.10;;;5.50;;
4464;SDS011;2245;48.136;13.428;2023-06-14T08:51:38;8.67;;;5.63;;
4464;SDS011;2245;48.136;13.428;2023-06-14T08:54:05;5.60;;;4.90;;
4464;SDS011;2245;48.136;13.428;2023-06-14T08:56:33;16.00;;;6.33;;
4464;SDS011;2245;48.136;13.428;2023-06-14T08:59:00;18.13;;;5.40;;
4464;SDS011;2245;48.136;13.428;2023-06-14T09:01:28;6.97;;;4.97;;
4464;SDS011;2245;48.136;13.428;2023-06-14T09:03:56;9.23;;;6.00;;
4464;SDS011;2245;48.136;13.428;2023-06-14T09:06:24;12.87;;;5.37;;
4464;SDS011;2245;48.136;13.428;2023-06-14T09:08:54;10.03;;;5.90;;
4464;SDS011;2245;48.136;13.428;2023-06-14T09:11:22;6.77;;;5.73;;
4464;SDS011;2245;48.136;13.428;2023-06-14T09:13:51;11.67;;;5.27;;
4464;SDS011;2245;48.136;13.428;2023-06-14T09:16:18;8.13;;;5.00;;
4464;SDS011;2245;48.136;13.428;2023-06-14T09:18:45;8.30;;;5.60;;
4464;SDS011;2245;48.136;13.428;2023-06-14T09:21:13;8.37;;;6.00;;
4464;SDS011;2245;48.136;13.428;2023-06-14T09:23:41;9.30;;;6.30;;
4464;SDS011;2245;48.136;13.428;2023-06-14T09:26:11;6.77;;;4.97;;
4464;SDS011;2245;48.136;13.428;2023-06-14T09:28:41;7.10;;;4.70;;
4464;SDS011;2245;48.136;13.428;2023-06-14T09:31:08;9.93;;;5.53;;
4464;SDS011;2245;48.136;13.428;2023-06-14T09:33:36;6.30;;;5.70;;
4464;SDS011;2245;48.136;13.428;2023-06-14T09:36:03;8.43;;;4.83;;
4464;SDS011;2245;48.136;13.428;2023-06-14T09:38:30;11.90;;;5.40;;
4464;SDS011;2245;48.136;13.428;2023-06-14T09:40:57;5.87;;;5.27;;
4464;SDS011;2245;48.136;13.428;2023-06-14T09:43:25;8.30;;;5.20;;
4464;SDS011;2245;48.136;13.428;2023-06-14T09:45:54;10.47;;;5.30;;
4464;SDS011;2245;48.136;13.428;2023-06-14T09:48:20;9.23;;;5.70;;
4464;SDS011;2245;48.136;13.428;2023-06-14T09:50:47;5.23;;;4.50;;
4464;SDS011;2245;48.136;13.428;2023-06-14T09:53:16;9.37;;;6.20;;
4464;SDS011;2245;48.136;13.428;2023-06-14T09:55:44;9.93;;;5.63;;
4464;SDS011;2245;48.136;13.428;2023-06-14T09:58:11;7.87;;;5.33;;
4464;SDS011;2245;48.136;13.428;2023-06-14T10:00:40;10.77;;;5.90;;
4464;SDS011;2245;48.136;13.428;2023-06-14T10:03:12;11.50;;;5.77;;
4464;SDS011;2245;48.136;13.428;2023-06-14T10:05:41;10.43;;;5.50;;
4464;SDS011;2245;48.136;13.428;2023-06-14T10:08:10;8.93;;;5.30;;
4464;SDS011;2245;48.136;13.428;2023-06-14T10:10:40;17.33;;;6.07;;
4464;SDS011;2245;48.136;13.428;2023-06-14T10:13:08;9.10;;;6.00;;
4464;SDS011;2245;48.136;13.428;2023-06-14T10:15:38;7.67;;;5.97;;
4464;SDS011;2245;48.136;13.428;2023-06-14T10:18:11;11.53;;;6.23;;
4464;SDS011;2245;48.136;13.428;2023-06-14T10:20:50;9.70;;;6.00;;
4464;SDS011;2245;48.136;13.428;2023-06-14T10:23:18;9.17;;;5.30;;
4464;SDS011;2245;48.136;13.428;2023-06-14T10:25:49;11.27;;;5.37;;
4464;SDS011;2245;48.136;13.428;2023-06-14T10:28:16;10.10;;;5.60;;
4464;SDS011;2245;48.136;13.428;2023-06-14T10:31:03;5.30;;;4.80;;
4464;SDS011;2245;48.136;13.428;2023-06-14T10:33:35;7.20;;;5.30;;
4464;SDS011;2245;48.136;13.428;2023-06-14T10:36:09;9.50;;;5.53;;
4464;SDS011;2245;48.136;13.428;2023-06-14T10:38:37;7.60;;;5.43;;
4464;SDS011;2245;48.136;13.428;2023-06-14T10:41:05;22.83;;;7.40;;
4464;SDS011;2245;48.136;13.428;2023-06-14T10:43:32;9.90;;;5.37;;
4464;SDS011;2245;48.136;13.428;2023-06-14T10:46:15;11.60;;;5.20;;
4464;SDS011;2245;48.136;13.428;2023-06-14T10:48:44;15.80;;;5.53;;
4464;SDS011;2245;48.136;13.428;2023-06-14T10:51:15;11.57;;;5.10;;
4464;SDS011;2245;48.136;13.428;2023-06-14T10:53:45;7.10;;;5.60;;
4464;SDS011;2245;48.136;13.428;2023-06-14T10:56:22;7.13;;;5.07;;
4464;SDS011;2245;48.136;13.428;2023-06-14T10:58:51;11.87;;;5.00;;
4464;SDS011;2245;48.136;13.428;2023-06-14T11:01:19;7.87;;;4.47;;
4464;SDS011;2245;48.136;13.428;2023-06-14T11:04:00;11.63;;;5.07;;
4464;SDS011;2245;48.136;13.428;2023-06-14T11:06:36;6.63;;;4.97;;
4464;SDS011;2245;48.136;13.428;2023-06-14T11:09:32;6.30;;;5.10;;
4464;SDS011;2245;48.136;13.428;2023-06-14T11:12:20;6.63;;;4.17;;
4464;SDS011;2245;48.136;13.428;2023-06-14T11:14:47;5.40;;;4.73;;
4464;SDS011;2245;48.136;13.428;2023-06-14T11:17:14;6.13;;;5.10;;
4464;SDS011;2245;48.136;13.428;2023-06-14T11:19:43;5.43;;;4.33;;
4464;SDS011;2245;48.136;13.428;2023-06-14T11:22:10;6.03;;;4.33;;
4464;SDS011;2245;48.136;13.428;2023-06-14T11:24:37;5.57;;;4.23;;
4464;SDS011;2245;48.136;13.428;2023-06-14T11:27:04;5.77;;;4.03;;
4464;SDS011;2245;48.136;13.428;2023-06-14T11:29:33;15.00;;;4.20;;
4464;SDS011;2245;48.136;13.428;2023-06-14T11:32:00;5.30;;;4.20;;
4464;SDS011;2245;48.136;13.428;2023-06-14T11:34:27;6.40;;;4.97;;
4464;SDS011;2245;48.136;13.428;2023-06-14T11:36:56;10.70;;;5.10;;
4464;SDS011;2245;48.136;13.428;2023-06-14T11:39:24;6.83;;;4.60;;
4464;SDS011;2245;48.136;13.428;2023-06-14T11:41:51;10.63;;;5.23;;
4464;SDS011;2245;48.136;13.428;2023-06-14T11:44:18;8.60;;;4.53;;
4464;SDS011;2245;48.136;13.428;2023-06-14T11:46:45;10.30;;;4.80;;
4464;SDS011;2245;48.136;13.428;2023-06-14T11:49:11;5.33;;;4.67;;
4464;SDS011;2245;48.136;13.428;2023-06-14T11:51:38;8.43;;;4.23;;
4464;SDS011;2245;48.136;13.428;2023-06-14T11:54:06;15.50;;;4.90;;
4464;SDS011;2245;48.136;13.428;2023-06-14T11:56:34;7.50;;;4.37;;
4464;SDS011;2245;48.136;13.428;2023-06-14T11:59:02;4.83;;;4.03;;
4464;SDS011;2245;48.136;13.428;2023-06-14T12:01:30;16.53;;;4.77;;
4464;SDS011;2245;48.136;13.428;2023-06-14T12:03:58;9.30;;;8.40;;
4464;SDS011;2245;48.136;13.428;2023-06-14T12:06:26;6.47;;;4.63;;
4464;SDS011;2245;48.136;13.428;2023-06-14T12:08:59;8.47;;;4.57;;
4464;SDS011;2245;48.136;13.428;2023-06-14T12:11:31;4.77;;;3.80;;
4464;SDS011;2245;48.136;13.428;2023-06-14T12:13:59;4.87;;;3.97;;
4464;SDS011;2245;48.136;13.428;2023-06-14T12:16:29;15.47;;;4.10;;
4464;SDS011;2245;48.136;13.428;2023-06-14T12:18:59;5.80;;;4.00;;
4464;SDS011;2245;48.136;13.428;2023-06-14T12:21:27;4.10;;;3.67;;
4464;SDS011;2245;48.136;13.428;2023-06-14T12:23:54;6.77;;;4.30;;
4464;SDS011;2245;48.136;13.428;2023-06-14T12:26:21;4.40;;;4.00;;
4464;SDS011;2245;48.136;13.428;2023-06-14T12:28:51;10.00;;;4.27;;
4464;SDS011;2245;48.136;13.428;2023-06-14T12:31:18;18.80;;;4.00;;
4464;SDS011;2245;48.136;13.428;2023-06-14T12:33:45;4.03;;;3.73;;
4464;SDS011;2245;48.136;13.428;2023-06-14T12:36:14;6.33;;;4.37;;
4464;SDS011;2245;48.136;13.428;2023-06-14T12:38:41;14.23;;;4.53;;
4464;SDS011;2245;48.136;13.428;2023-06-14T12:41:08;10.83;;;4.60;;
4464;SDS011;2245;48.136;13.428;2023-06-14T12:43:35;3.77;;;3.40;;
4464;SDS011;2245;48.136;13.428;2023-06-14T12:46:04;5.33;;;4.47;;
4464;SDS011;2245;48.136;13.428;2023-06-14T12:48:31;5.00;;;3.83;;
4464;SDS011;2245;48.136;13.428;2023-06-14T12:50:59;4.90;;;3.70;;
4464;SDS011;2245;48.136;13.428;2023-06-14T12:53:26;8.33;;;4.00;;
4464;SDS011;2245;48.136;13.428;2023-06-14T12:55:53;7.33;;;3.60;;
4464;SDS011;2245;48.136;13.428;2023-06-14T12:58:20;4.83;;;4.13;;
4464;SDS011;2245;48.136;13.428;2023-06-14T13:00:48;4.60;;;3.40;;
4464;SDS011;2245;48.136;13.428;2023-06-14T13:03:17;5.10;;;4.07;;
4464;SDS011;2245;48.136;13.428;2023-06-14T13:05:43;6.87;;;4.00;;
4464;SDS011;2245;48.136;13.428;2023-06-14T13:08:11;6.10;;;4.00;;
4464;SDS011;2245;48.136;13.428;2023-06-14T13:10:38;5.30;;;3.93;;
4464;SDS011;2245;48.136;13.428;2023-06-14T13:13:05;5.00;;;4.00;;
4464;SDS011;2245;48.136;13.428;2023-06-14T13:15:32;5.53;;;3.70;;
4464;SDS011;2245;48.136;13.428;2023-06-14T13:17:59;9.33;;;4.03;;
4464;SDS011;2245;48.136;13.428;2023-06-14T13:20:29;7.20;;;4.60;;
4464;SDS011;2245;48.136;13.428;2023-06-14T13:22:56;8.33;;;3.90;;
4464;SDS011;2245;48.136;13.428;2023-06-14T13:25:23;5.60;;;4.50;;
4464;SDS011;2245;48.136;13.428;2023-06-14T13:27:50;5.73;;;4.20;;
4464;SDS011;2245;48.136;13.428;2023-06-14T13:30:17;10.63;;;4.60;;
4464;SDS011;2245;48.136;13.428;2023-06-14T13:32:44;6.93;;;4.60;;
4464;SDS011;2245;48.136;13.428;2023-06-14T13:35:11;5.17;;;4.00;;
4464;SDS011;2245;48.136;13.428;2023-06-14T13:37:39;6.23;;;4.80;;
4464;SDS011;2245;48.136;13.428;2023-06-14T13:40:06;5.07;;;4.10;;
4464;SDS011;2245;48.136;13.428;2023-06-14T13:42:34;4.40;;;3.77;;
4464;SDS011;2245;48.136;13.428;2023-06-14T13:45:01;4.77;;;3.90;;
4464;SDS011;2245;48.136;13.428;2023-06-14T13:47:28;9.37;;;4.80;;
4464;SDS011;2245;48.136;13.428;2023-06-14T13:49:55;8.43;;;4.93;;
4464;SDS011;2245;48.136;13.428;2023-06-14T13:52:21;8.77;;;4.03;;
4464;SDS011;2245;48.136;13.428;2023-06-14T13:54:50;30.70;;;5.17;;
4464;SDS011;2245;48.136;13.428;2023-06-14T13:57:17;5.40;;;4.50;;
4464;SDS011;2245;48.136;13.428;2023-06-14T13:59:44;4.57;;;4.17;;
4464;SDS011;2245;48.136;13.428;2023-06-14T14:02:11;6.10;;;4.07;;
4464;SDS011;2245;48.136;13.428;2023-06-14T14:04:39;5.03;;;4.50;;
4464;SDS011;2245;48.136;13.428;2023-06-14T14:07:07;4.90;;;4.23;;
4464;SDS011;2245;48.136;13.428;2023-06-14T14:09:34;8.00;;;4.60;;
4464;SDS011;2245;48.136;13.428;2023-06-14T14:12:04;4.73;;;4.30;;
4464;SDS011;2245;48.136;13.428;2023-06-14T14:14:31;5.60;;;4.47;;
4464;SDS011;2245;48.136;13.428;2023-06-14T14:16:58;6.60;;;4.67;;
4464;SDS011;2245;48.136;13.428;2023-06-14T14:19:25;12.27;;;4.83;;
4464;SDS011;2245;48.136;13.428;2023-06-14T14:21:52;5.53;;;4.90;;
4464;SDS011;2245;48.136;13.428;2023-06-14T14:24:19;7.40;;;5.00;;
4464;SDS011;2245;48.136;13.428;2023-06-14T14:26:46;7.30;;;4.80;;
4464;SDS011;2245;48.136;13.428;2023-06-14T14:29:16;8.97;;;5.07;;
4464;SDS011;2245;48.136;13.428;2023-06-14T14:31:43;6.73;;;4.60;;
4464;SDS011;2245;48.136;13.428;2023-06-14T14:34:10;6.53;;;5.10;;
4464;SDS011;2245;48.136;13.428;2023-06-14T14:36:37;8.97;;;7.30;;
4464;SDS011;2245;48.136;13.428;2023-06-14T14:39:07;6.20;;;4.80;;
4464;SDS011;2245;48.136;13.428;2023-06-14T14:41:35;4.33;;;3.80;;
4464;SDS011;2245;48.136;13.428;2023-06-14T14:44:03;5.67;;;4.80;;
4464;SDS011;2245;48.136;13.428;2023-06-14T14:46:32;8.50;;;4.83;;
4464;SDS011;2245;48.136;13.428;2023-06-14T14:48:59;6.67;;;3.93;;
4464;SDS011;2245;48.136;13.428;2023-06-14T14:51:26;4.97;;;4.20;;
4464;SDS011;2245;48.136;13.428;2023-06-14T14:53:53;8.67;;;4.70;;
4464;SDS011;2245;48.136;13.428;2023-06-14T14:56:22;6.60;;;4.60;;
4464;SDS011;2245;48.136;13.428;2023-06-14T14:58:50;5.60;;;4.90;;
4464;SDS011;2245;48.136;13.428;2023-06-14T15:01:18;5.10;;;4.50;;
4464;SDS011;2245;48.136;13.428;2023-06-14T15:03:46;5.30;;;4.80;;